sensor_id;sensor_type;location;lat;lon;timestamp;P1;durP1;ratioP1;P2;durP2;ratioP2
11642;SDS011;5877;50.930;6.918;2022-07-22T00:00:13;10.90;;;5.10;;
11642;SDS011;5877;50.930;6.918;2022-07-22T00:02:41;6.50;;;5.13;;
11642;SDS011;5877;50.930;6.918;2022-07-22T00:05:10;8.53;;;5.13;;
11642;SDS011;5877;50.930;6.918;2022-07-22T00:07:38;8.07;;;4.93;;
11642;SDS011;5877;50.930;6.918;2022-07-22T00:10:06;8.90;;;4.50;;
11642;SDS011;5877;50.930;6.918;2022-07-22T00:12:34;7.60;;;4.57;;
11642;SDS011;5877;50.930;6.918;2022-07-22T00:15:01;6.67;;;3.80;;
11642;SDS011;5877;50.930;6.918;2022-07-22T00:17:29;4.57;;;3.60;;
11642;SDS011;5877;50.930;6.918;2022-07-22T00:19:56;10.50;;;4.40;;
11642;SDS011;5877;50.930;6.918;2022-07-22T00:22:23;6.67;;;3.90;;
11642;SDS011;5877;50.930;6.918;2022-07-22T00:24:50;10.00;;;3.67;;
11642;SDS011;5877;50.930;6.918;2022-07-22T00:27:17;6.33;;;3.20;;
11642;SDS011;5877;50.930;6.918;2022-07-22T00:29:44;5.13;;;3.37;;
11642;SDS011;5877;50.930;6.918;2022-07-22T00:32:11;7.47;;;3.73;;
11642;SDS011;5877;50.930;6.918;2022-07-22T00:34:39;7.53;;;4.00;;
11642;SDS011;5877;50.930;6.918;2022-07-22T00:37:06;7.00;;;4.07;;
11642;SDS011;5877;50.930;6.918;2022-07-22T00:39:36;5.17;;;3.07;;
11642;SDS011;5877;50.930;6.918;2022-07-22T00:42:04;7.73;;;3.87;;
11642;SDS011;5877;50.930;6.918;2022-07-22T00:44:33;7.87;;;3.60;;
11642;SDS011;5877;50.930;6.918;2022-07-22T00:47:03;8.43;;;3.83;;
11642;SDS011;5877;50.930;6.918;2022-07-22T00:49:31;9.17;;;4.13;;
11642;SDS011;5877;50.930;6.918;2022-07-22T00:51:58;6.47;;;3.67;;
11642;SDS011;5877;50.930;6.918;2022-07-22T00:54:25;9.60;;;4.10;;
11642;SDS011;5877;50.930;6.918;2022-07-22T00:56:54;6.47;;;3.37;;
11642;SDS011;5877;50.930;6.918;2022-07-22T00:59:22;5.57;;;3.53;;
11642;SDS011;5877;50.930;6.918;2022-07-22T01:01:51;6.87;;;3.37;;
11642;SDS011;5877;50.930;6.918;2022-07-22T01:04:18;6.43;;;3.33;;
11642;SDS011;5877;50.930;6.918;2022-07-22T01:06:45;10.43;;;4.10;;
11642;SDS011;5877;50.930;6.918;2022-07-22T01:09:20;5.63;;;3.30;;
11642;SDS011;5877;50.930;6.918;2022-07-22T01:11:53;9.03;;;3.83;;
11642;SDS011;5877;50.930;6.918;2022-07-22T01:14:40;6.30;;;3.20;;
11642;SDS011;5877;50.930;6.918;2022-07-22T01:17:07;7.67;;;3.93;;
11642;SDS011;5877;50.930;6.918;2022-07-22T01:19:36;8.50;;;3.53;;
11642;SDS011;5877;50.930;6.918;2022-07-22T01:22:04;6.50;;;3.73;;
11642;SDS011;5877;50.930;6.918;2022-07-22T01:24:34;7.57;;;4.20;;
11642;SDS011;5877;50.930;6.918;2022-07-22T01:27:01;11.27;;;4.43;;
11642;SDS011;5877;50.930;6.918;2022-07-22T01:29:28;9.03;;;3.87;;
11642;SDS011;5877;50.930;6.918;2022-07-22T01:31:55;6.67;;;4.20;;
11642;SDS011;5877;50.930;6.918;2022-07-22T01:34:23;13.10;;;4.83;;
11642;SDS011;5877;50.930;6.918;2022-07-22T01:36:55;7.10;;;3.83;;
11642;SDS011;5877;50.930;6.918;2022-07-22T01:39:24;6.87;;;3.47;;
11642;SDS011;5877;50.930;6.918;2022-07-22T01:41:54;8.30;;;3.87;;
11642;SDS011;5877;50.930;6.918;2022-07-22T01:44:21;7.43;;;3.67;;
11642;SDS011;5877;50.930;6.918;2022-07-22T01:46:48;8.80;;;4.13;;
11642;SDS011;5877;50.930;6.918;2022-07-22T01:49:17;7.73;;;3.83;;
11642;SDS011;5877;50.930;6.918;2022-07-22T01:51:44;7.60;;;3.90;;
11642;SDS011;5877;50.930;6.918;2022-07-22T01:54:11;7.47;;;3.73;;
11642;SDS011;5877;50.930;6.918;2022-07-22T01:56:38;10.60;;;4.53;;
11642;SDS011;5877;50.930;6.918;2022-07-22T01:59:05;8.33;;;4.27;;
11642;SDS011;5877;50.930;6.918;2022-07-22T02:01:42;8.17;;;4.40;;
11642;SDS011;5877;50.930;6.918;2022-07-22T02:04:11;7.23;;;4.67;;
11642;SDS011;5877;50.930;6.918;2022-07-22T02:06:59;9.40;;;4.20;;
11642;SDS011;5877;50.930;6.918;2022-07-22T02:09:30;7.17;;;3.70;;
11642;SDS011;5877;50.930;6.918;2022-07-22T02:11:57;8.37;;;3.97;;
11642;SDS011;5877;50.930;6.918;2022-07-22T02:14:24;11.67;;;4.60;;
11642;SDS011;5877;50.930;6.918;2022-07-22T02:16:51;10.60;;;4.20;;
11642;SDS011;5877;50.930;6.918;2022-07-22T02:19:18;12.57;;;5.17;;
11642;SDS011;5877;50.930;6.918;2022-07-22T02:21:45;6.77;;;4.23;;
11642;SDS011;5877;50.930;6.918;2022-07-22T02:24:13;10.13;;;4.17;;
11642;SDS011;5877;50.930;6.918;2022-07-22T02:26:40;9.33;;;4.63;;
11642;SDS011;5877;50.930;6.918;2022-07-22T02:29:11;8.77;;;4.60;;
11642;SDS011;5877;50.930;6.918;2022-07-22T02:31:39;8.37;;;4.27;;
11642;SDS011;5877;50.930;6.918;2022-07-22T02:34:07;7.40;;;4.07;;
11642;SDS011;5877;50.930;6.918;2022-07-22T02:36:35;7.07;;;4.27;;
11642;SDS011;5877;50.930;6.918;2022-07-22T02:39:04;7.17;;;4.73;;
11642;SDS011;5877;50.930;6.918;2022-07-22T02:41:31;9.00;;;4.70;;
11642;SDS011;5877;50.930;6.918;2022-07-22T02:43:59;7.93;;;4.47;;
11642;SDS011;5877;50.930;6.918;2022-07-22T02:46:27;8.67;;;4.80;;
11642;SDS011;5877;50.930;6.918;2022-07-22T02:49:08;7.70;;;4.10;;
11642;SDS011;5877;50.930;6.918;2022-07-22T02:51:36;8.87;;;4.50;;
11642;SDS011;5877;50.930;6.918;2022-07-22T02:54:03;6.20;;;4.53;;
11642;SDS011;5877;50.930;6.918;2022-07-22T02:56:31;7.73;;;4.57;;
11642;SDS011;5877;50.930;6.918;2022-07-22T02:58:59;8.40;;;4.60;;
11642;SDS011;5877;50.930;6.918;2022-07-22T03:01:26;9.57;;;4.20;;
11642;SDS011;5877;50.930;6.918;2022-07-22T03:03:56;10.77;;;4.47;;
11642;SDS011;5877;50.930;6.918;2022-07-22T03:06:26;7.13;;;4.23;;
11642;SDS011;5877;50.930;6.918;2022-07-22T03:09:18;9.60;;;4.87;;
11642;SDS011;5877;50.930;6.918;2022-07-22T03:11:46;8.40;;;5.33;;
11642;SDS011;5877;50.930;6.918;2022-07-22T03:14:14;8.87;;;5.63;;
11642;SDS011;5877;50.930;6.918;2022-07-22T03:16:42;10.67;;;6.37;;
11642;SDS011;5877;50.930;6.918;2022-07-22T03:19:11;10.07;;;5.57;;
11642;SDS011;5877;50.930;6.918;2022-07-22T03:21:38;8.70;;;4.97;;
11642;SDS011;5877;50.930;6.918;2022-07-22T03:24:06;8.23;;;5.23;;
11642;SDS011;5877;50.930;6.918;2022-07-22T03:26:33;10.20;;;5.20;;
11642;SDS011;5877;50.930;6.918;2022-07-22T03:29:00;8.87;;;4.93;;
11642;SDS011;5877;50.930;6.918;2022-07-22T03:31:30;8.70;;;5.00;;
11642;SDS011;5877;50.930;6.918;2022-07-22T03:33:58;11.17;;;5.30;;
11642;SDS011;5877;50.930;6.918;2022-07-22T03:36:31;6.70;;;4.87;;
11642;SDS011;5877;50.930;6.918;2022-07-22T03:38:59;8.17;;;4.73;;
11642;SDS011;5877;50.930;6.918;2022-07-22T03:41:27;7.37;;;5.30;;
11642;SDS011;5877;50.930;6.918;2022-07-22T03:43:54;7.73;;;5.07;;
11642;SDS011;5877;50.930;6.918;2022-07-22T03:46:22;7.20;;;4.87;;
11642;SDS011;5877;50.930;6.918;2022-07-22T03:48:50;9.90;;;5.40;;
11642;SDS011;5877;50.930;6.918;2022-07-22T03:51:18;8.23;;;5.00;;
11642;SDS011;5877;50.930;6.918;2022-07-22T03:53:45;7.70;;;5.40;;
11642;SDS011;5877;50.930;6.918;2022-07-22T03:56:12;8.57;;;5.60;;
11642;SDS011;5877;50.930;6.918;2022-07-22T03:58:39;7.00;;;4.90;;
11642;SDS011;5877;50.930;6.918;2022-07-22T04:01:07;8.30;;;5.87;;
11642;SDS011;5877;50.930;6.918;2022-07-22T04:03:36;9.77;;;5.40;;
11642;SDS011;5877;50.930;6.918;2022-07-22T04:06:11;9.03;;;5.47;;
11642;SDS011;5877;50.930;6.918;2022-07-22T04:08:45;8.93;;;5.67;;
11642;SDS011;5877;50.930;6.918;2022-07-22T04:11:12;11.47;;;5.60;;
11642;SDS011;5877;50.930;6.918;2022-07-22T04:13:40;8.83;;;5.30;;
11642;SDS011;5877;50.930;6.918;2022-07-22T04:16:07;9.83;;;5.23;;
11642;SDS011;5877;50.930;6.918;2022-07-22T04:18:34;10.10;;;5.03;;
11642;SDS011;5877;50.930;6.918;2022-07-22T04:21:02;9.97;;;5.73;;
11642;SDS011;5877;50.930;6.918;2022-07-22T04:23:29;10.23;;;5.00;;
11642;SDS011;5877;50.930;6.918;2022-07-22T04:26:16;8.00;;;5.30;;
11642;SDS011;5877;50.930;6.918;2022-07-22T04:28:43;6.90;;;5.40;;
11642;SDS011;5877;50.930;6.918;2022-07-22T04:31:10;9.33;;;5.30;;
11642;SDS011;5877;50.930;6.918;2022-07-22T04:33:41;11.43;;;5.30;;
11642;SDS011;5877;50.930;6.918;2022-07-22T04:36:07;7.80;;;5.20;;
11642;SDS011;5877;50.930;6.918;2022-07-22T04:38:36;6.93;;;4.97;;
11642;SDS011;5877;50.930;6.918;2022-07-22T04:41:06;9.37;;;5.00;;
11642;SDS011;5877;50.930;6.918;2022-07-22T04:43:38;6.83;;;4.77;;
11642;SDS011;5877;50.930;6.918;2022-07-22T04:46:06;8.10;;;5.17;;
11642;SDS011;5877;50.930;6.918;2022-07-22T04:48:38;8.43;;;4.27;;
11642;SDS011;5877;50.930;6.918;2022-07-22T04:51:05;7.63;;;4.60;;
11642;SDS011;5877;50.930;6.918;2022-07-22T04:53:33;8.37;;;4.20;;
11642;SDS011;5877;50.930;6.918;2022-07-22T04:56:17;10.10;;;4.53;;
11642;SDS011;5877;50.930;6.918;2022-07-22T04:58:46;5.47;;;4.10;;
11642;SDS011;5877;50.930;6.918;2022-07-22T05:01:13;5.43;;;4.07;;
11642;SDS011;5877;50.930;6.918;2022-07-22T05:03:48;6.07;;;3.87;;
11642;SDS011;5877;50.930;6.918;2022-07-22T05:06:18;7.07;;;4.10;;
11642;SDS011;5877;50.930;6.918;2022-07-22T05:08:45;4.60;;;3.47;;
11642;SDS011;5877;50.930;6.918;2022-07-22T05:11:12;6.17;;;4.03;;
11642;SDS011;5877;50.930;6.918;2022-07-22T05:13:39;8.00;;;4.50;;
11642;SDS011;5877;50.930;6.918;2022-07-22T05:16:08;5.73;;;4.07;;
11642;SDS011;5877;50.930;6.918;2022-07-22T05:18:38;8.90;;;4.50;;
11642;SDS011;5877;50.930;6.918;2022-07-22T05:21:07;6.10;;;4.20;;
11642;SDS011;5877;50.930;6.918;2022-07-22T05:23:34;6.67;;;4.40;;
11642;SDS011;5877;50.930;6.918;2022-07-22T05:26:03;7.97;;;4.40;;
11642;SDS011;5877;50.930;6.918;2022-07-22T05:28:31;5.57;;;4.20;;
11642;SDS011;5877;50.930;6.918;2022-07-22T05:30:58;9.43;;;6.23;;
11642;SDS011;5877;50.930;6.918;2022-07-22T05:33:26;8.10;;;4.87;;
11642;SDS011;5877;50.930;6.918;2022-07-22T05:36:02;8.37;;;5.90;;
11642;SDS011;5877;50.930;6.918;2022-07-22T05:38:35;9.63;;;5.43;;
11642;SDS011;5877;50.930;6.918;2022-07-22T05:41:02;7.80;;;5.80;;
11642;SDS011;5877;50.930;6.918;2022-07-22T05:43:33;12.60;;;8.10;;
11642;SDS011;5877;50.930;6.918;2022-07-22T05:46:04;11.47;;;8.10;;
11642;SDS011;5877;50.930;6.918;2022-07-22T05:48:32;9.40;;;7.07;;
11642;SDS011;5877;50.930;6.918;2022-07-22T05:51:00;9.23;;;6.30;;
11642;SDS011;5877;50.930;6.918;2022-07-22T05:53:30;8.27;;;5.97;;
11642;SDS011;5877;50.930;6.918;2022-07-22T05:55:57;10.20;;;6.47;;
11642;SDS011;5877;50.930;6.918;2022-07-22T05:58:33;8.27;;;7.00;;
11642;SDS011;5877;50.930;6.918;2022-07-22T06:01:00;9.23;;;7.10;;
11642;SDS011;5877;50.930;6.918;2022-07-22T06:03:27;8.47;;;6.83;;
11642;SDS011;5877;50.930;6.918;2022-07-22T06:05:54;10.87;;;6.60;;
11642;SDS011;5877;50.930;6.918;2022-07-22T06:08:22;7.87;;;6.43;;
11642;SDS011;5877;50.930;6.918;2022-07-22T06:10:50;7.27;;;6.13;;
11642;SDS011;5877;50.930;6.918;2022-07-22T06:13:19;8.20;;;6.40;;
11642;SDS011;5877;50.930;6.918;2022-07-22T06:15:46;9.03;;;6.13;;
11642;SDS011;5877;50.930;6.918;2022-07-22T06:18:15;10.17;;;7.33;;
11642;SDS011;5877;50.930;6.918;2022-07-22T06:20:44;9.80;;;7.13;;
11642;SDS011;5877;50.930;6.918;2022-07-22T06:23:12;11.10;;;7.37;;
11642;SDS011;5877;50.930;6.918;2022-07-22T06:25:39;10.77;;;7.77;;
11642;SDS011;5877;50.930;6.918;2022-07-22T06:28:38;13.37;;;8.03;;
11642;SDS011;5877;50.930;6.918;2022-07-22T06:31:07;9.43;;;8.20;;
11642;SDS011;5877;50.930;6.918;2022-07-22T06:33:34;11.30;;;7.33;;
11642;SDS011;5877;50.930;6.918;2022-07-22T06:36:02;10.00;;;8.37;;
11642;SDS011;5877;50.930;6.918;2022-07-22T06:38:31;9.67;;;7.53;;
11642;SDS011;5877;50.930;6.918;2022-07-22T06:41:18;8.97;;;7.93;;
11642;SDS011;5877;50.930;6.918;2022-07-22T06:44:13;12.30;;;7.50;;
11642;SDS011;5877;50.930;6.918;2022-07-22T06:46:59;7.43;;;6.40;;
11642;SDS011;5877;50.930;6.918;2022-07-22T06:49:28;11.60;;;8.30;;
11642;SDS011;5877;50.930;6.918;2022-07-22T06:51:54;9.50;;;6.47;;
11642;SDS011;5877;50.930;6.918;2022-07-22T06:54:22;14.57;;;13.07;;
11642;SDS011;5877;50.930;6.918;2022-07-22T06:56:52;15.03;;;13.47;;
11642;SDS011;5877;50.930;6.918;2022-07-22T06:59:25;12.47;;;10.43;;
11642;SDS011;5877;50.930;6.918;2022-07-22T07:01:56;8.43;;;7.07;;
11642;SDS011;5877;50.930;6.918;2022-07-22T07:04:24;7.43;;;6.50;;
11642;SDS011;5877;50.930;6.918;2022-07-22T07:06:52;8.00;;;6.67;;
11642;SDS011;5877;50.930;6.918;2022-07-22T07:09:35;8.23;;;5.63;;
11642;SDS011;5877;50.930;6.918;2022-07-22T07:12:16;5.80;;;3.83;;
11642;SDS011;5877;50.930;6.918;2022-07-22T07:15:12;4.70;;;3.93;;
11642;SDS011;5877;50.930;6.918;2022-07-22T07:18:04;6.57;;;3.87;;
11642;SDS011;5877;50.930;6.918;2022-07-22T07:20:33;5.30;;;3.90;;
11642;SDS011;5877;50.930;6.918;2022-07-22T07:23:01;7.50;;;3.67;;
11642;SDS011;5877;50.930;6.918;2022-07-22T07:25:32;4.70;;;3.60;;
11642;SDS011;5877;50.930;6.918;2022-07-22T07:28:00;7.83;;;4.03;;
11642;SDS011;5877;50.930;6.918;2022-07-22T07:30:50;7.97;;;3.53;;
11642;SDS011;5877;50.930;6.918;2022-07-22T07:33:18;9.13;;;3.40;;
11642;SDS011;5877;50.930;6.918;2022-07-22T07:35:45;7.13;;;3.40;;
11642;SDS011;5877;50.930;6.918;2022-07-22T07:38:14;5.83;;;3.10;;
11642;SDS011;5877;50.930;6.918;2022-07-22T07:40:42;5.90;;;3.27;;
11642;SDS011;5877;50.930;6.918;2022-07-22T07:43:09;6.17;;;3.47;;
11642;SDS011;5877;50.930;6.918;2022-07-22T07:45:37;5.30;;;3.93;;
11642;SDS011;5877;50.930;6.918;2022-07-22T07:48:06;5.63;;;3.40;;
11642;SDS011;5877;50.930;6.918;2022-07-22T07:50:34;5.60;;;3.40;;
11642;SDS011;5877;50.930;6.918;2022-07-22T07:53:03;6.77;;;3.70;;
11642;SDS011;5877;50.930;6.918;2022-07-22T07:55:33;6.77;;;3.30;;
11642;SDS011;5877;50.930;6.918;2022-07-22T07:58:05;6.67;;;3.40;;
11642;SDS011;5877;50.930;6.918;2022-07-22T08:00:33;6.57;;;3.60;;
11642;SDS011;5877;50.930;6.918;2022-07-22T08:03:02;7.47;;;3.80;;
11642;SDS011;5877;50.930;6.918;2022-07-22T08:05:34;5.93;;;3.90;;
11642;SDS011;5877;50.930;6.918;2022-07-22T08:08:02;6.20;;;4.90;;
11642;SDS011;5877;50.930;6.918;2022-07-22T08:10:36;6.50;;;4.23;;
11642;SDS011;5877;50.930;6.918;2022-07-22T08:13:56;8.97;;;4.40;;
11642;SDS011;5877;50.930;6.918;2022-07-22T08:16:53;5.67;;;4.10;;
11642;SDS011;5877;50.930;6.918;2022-07-22T08:19:21;9.23;;;4.17;;
11642;SDS011;5877;50.930;6.918;2022-07-22T08:21:51;5.17;;;3.80;;
11642;SDS011;5877;50.930;6.918;2022-07-22T08:24:29;5.70;;;3.67;;
11642;SDS011;5877;50.930;6.918;2022-07-22T08:27:00;27.73;;;7.00;;
11642;SDS011;5877;50.930;6.918;2022-07-22T08:29:28;6.13;;;4.53;;
11642;SDS011;5877;50.930;6.918;2022-07-22T08:31:55;6.03;;;3.60;;
11642;SDS011;5877;50.930;6.918;2022-07-22T08:34:24;7.27;;;5.50;;
11642;SDS011;5877;50.930;6.918;2022-07-22T08:36:51;25.70;;;9.20;;
11642;SDS011;5877;50.930;6.918;2022-07-22T08:39:18;8.50;;;5.30;;
11642;SDS011;5877;50.930;6.918;2022-07-22T08:41:49;76.70;;;14.57;;
11642;SDS011;5877;50.930;6.918;2022-07-22T08:44:18;9.13;;;5.20;;
11642;SDS011;5877;50.930;6.918;2022-07-22T08:46:47;19.83;;;8.00;;
11642;SDS011;5877;50.930;6.918;2022-07-22T08:49:29;8.07;;;5.90;;
11642;SDS011;5877;50.930;6.918;2022-07-22T08:52:11;23.47;;;6.70;;
11642;SDS011;5877;50.930;6.918;2022-07-22T08:54:42;10.03;;;6.37;;
11642;SDS011;5877;50.930;6.918;2022-07-22T08:57:11;35.03;;;9.77;;
11642;SDS011;5877;50.930;6.918;2022-07-22T08:59:54;8.77;;;5.30;;
11642;SDS011;5877;50.930;6.918;2022-07-22T09:02:24;9.77;;;5.50;;
11642;SDS011;5877;50.930;6.918;2022-07-22T09:04:59;9.73;;;6.00;;
11642;SDS011;5877;50.930;6.918;2022-07-22T09:07:51;10.10;;;7.10;;
11642;SDS011;5877;50.930;6.918;2022-07-22T09:10:29;6.67;;;4.90;;
11642;SDS011;5877;50.930;6.918;2022-07-22T09:13:05;31.40;;;8.23;;
11642;SDS011;5877;50.930;6.918;2022-07-22T09:15:57;7.23;;;4.97;;
11642;SDS011;5877;50.930;6.918;2022-07-22T09:19:05;7.30;;;5.07;;
11642;SDS011;5877;50.930;6.918;2022-07-22T09:21:59;8.70;;;5.77;;
11642;SDS011;5877;50.930;6.918;2022-07-22T09:24:41;23.17;;;8.63;;
11642;SDS011;5877;50.930;6.918;2022-07-22T09:27:31;8.50;;;6.33;;
11642;SDS011;5877;50.930;6.918;2022-07-22T09:30:24;9.63;;;5.90;;
11642;SDS011;5877;50.930;6.918;2022-07-22T09:33:02;17.57;;;7.83;;
11642;SDS011;5877;50.930;6.918;2022-07-22T09:35:42;26.53;;;7.40;;
11642;SDS011;5877;50.930;6.918;2022-07-22T09:38:16;6.77;;;5.50;;
11642;SDS011;5877;50.930;6.918;2022-07-22T09:40:45;19.63;;;7.03;;
11642;SDS011;5877;50.930;6.918;2022-07-22T09:43:15;7.47;;;5.67;;
11642;SDS011;5877;50.930;6.918;2022-07-22T09:45:46;7.93;;;5.03;;
11642;SDS011;5877;50.930;6.918;2022-07-22T09:49:02;8.03;;;4.70;;
11642;SDS011;5877;50.930;6.918;2022-07-22T09:51:59;7.40;;;4.60;;
11642;SDS011;5877;50.930;6.918;2022-07-22T09:54:39;11.90;;;5.40;;
11642;SDS011;5877;50.930;6.918;2022-07-22T09:57:07;9.40;;;5.30;;
11642;SDS011;5877;50.930;6.918;2022-07-22T09:59:35;7.03;;;5.50;;
11642;SDS011;5877;50.930;6.918;2022-07-22T10:02:20;8.07;;;5.97;;
11642;SDS011;5877;50.930;6.918;2022-07-22T10:04:55;6.37;;;5.63;;
11642;SDS011;5877;50.930;6.918;2022-07-22T10:07:25;7.40;;;5.70;;
11642;SDS011;5877;50.930;6.918;2022-07-22T10:09:54;7.80;;;7.00;;
11642;SDS011;5877;50.930;6.918;2022-07-22T10:12:21;8.43;;;7.53;;
11642;SDS011;5877;50.930;6.918;2022-07-22T10:14:50;7.60;;;6.80;;
11642;SDS011;5877;50.930;6.918;2022-07-22T10:17:18;6.50;;;5.80;;
11642;SDS011;5877;50.930;6.918;2022-07-22T10:19:47;7.97;;;6.73;;
11642;SDS011;5877;50.930;6.918;2022-07-22T10:25:09;10.53;;;8.37;;
11642;SDS011;5877;50.930;6.918;2022-07-22T10:33:26;8.23;;;7.43;;
11642;SDS011;5877;50.930;6.918;2022-07-22T10:35:57;8.67;;;7.97;;
11642;SDS011;5877;50.930;6.918;2022-07-22T10:38:30;9.30;;;8.37;;
11642;SDS011;5877;50.930;6.918;2022-07-22T10:41:01;10.33;;;9.30;;
11642;SDS011;5877;50.930;6.918;2022-07-22T10:46:10;10.97;;;9.33;;
11642;SDS011;5877;50.930;6.918;2022-07-22T10:59:10;11.87;;;7.33;;
11642;SDS011;5877;50.930;6.918;2022-07-22T11:01:39;7.97;;;7.27;;
11642;SDS011;5877;50.930;6.918;2022-07-22T11:06:48;9.93;;;6.80;;
11642;SDS011;5877;50.930;6.918;2022-07-22T11:09:17;9.27;;;6.93;;
11642;SDS011;5877;50.930;6.918;2022-07-22T11:11:47;9.43;;;7.47;;
11642;SDS011;5877;50.930;6.918;2022-07-22T11:14:18;7.13;;;6.43;;
11642;SDS011;5877;50.930;6.918;2022-07-22T11:16:49;7.87;;;7.07;;
11642;SDS011;5877;50.930;6.918;2022-07-22T11:19:24;9.20;;;7.27;;
11642;SDS011;5877;50.930;6.918;2022-07-22T11:21:59;9.43;;;7.27;;
11642;SDS011;5877;50.930;6.918;2022-07-22T11:24:32;8.53;;;7.60;;
11642;SDS011;5877;50.930;6.918;2022-07-22T11:27:00;8.43;;;7.63;;
11642;SDS011;5877;50.930;6.918;2022-07-22T11:29:32;8.70;;;7.80;;
11642;SDS011;5877;50.930;6.918;2022-07-22T11:32:07;8.67;;;7.77;;
11642;SDS011;5877;50.930;6.918;2022-07-22T11:34:36;7.60;;;6.80;;
11642;SDS011;5877;50.930;6.918;2022-07-22T11:37:04;8.77;;;7.87;;
11642;SDS011;5877;50.930;6.918;2022-07-22T11:39:32;8.80;;;7.90;;
11642;SDS011;5877;50.930;6.918;2022-07-22T11:41:59;9.23;;;7.50;;
11642;SDS011;5877;50.930;6.918;2022-07-22T11:44:28;8.83;;;7.83;;
11642;SDS011;5877;50.930;6.918;2022-07-22T11:46:58;8.17;;;7.33;;
11642;SDS011;5877;50.930;6.918;2022-07-22T11:49:27;8.83;;;8.03;;
11642;SDS011;5877;50.930;6.918;2022-07-22T11:51:55;11.70;;;8.27;;
11642;SDS011;5877;50.930;6.918;2022-07-22T11:54:23;11.23;;;9.23;;
11642;SDS011;5877;50.930;6.918;2022-07-22T11:56:50;10.50;;;8.40;;
11642;SDS011;5877;50.930;6.918;2022-07-22T11:59:23;9.30;;;8.43;;
11642;SDS011;5877;50.930;6.918;2022-07-22T12:01:51;9.83;;;8.73;;
11642;SDS011;5877;50.930;6.918;2022-07-22T12:04:24;8.23;;;7.43;;
11642;SDS011;5877;50.930;6.918;2022-07-22T12:06:53;9.73;;;8.50;;
11642;SDS011;5877;50.930;6.918;2022-07-22T12:09:24;9.13;;;8.17;;
11642;SDS011;5877;50.930;6.918;2022-07-22T12:11:54;8.70;;;7.80;;
11642;SDS011;5877;50.930;6.918;2022-07-22T12:14:52;9.50;;;8.60;;
11642;SDS011;5877;50.930;6.918;2022-07-22T12:17:27;10.33;;;8.20;;
11642;SDS011;5877;50.930;6.918;2022-07-22T12:20:05;9.63;;;8.63;;
11642;SDS011;5877;50.930;6.918;2022-07-22T12:22:44;9.93;;;9.03;;
11642;SDS011;5877;50.930;6.918;2022-07-22T12:25:13;10.13;;;9.20;;
11642;SDS011;5877;50.930;6.918;2022-07-22T12:27:41;10.13;;;9.03;;
11642;SDS011;5877;50.930;6.918;2022-07-22T12:30:11;10.67;;;9.57;;
11642;SDS011;5877;50.930;6.918;2022-07-22T12:32:46;17.17;;;9.80;;
11642;SDS011;5877;50.930;6.918;2022-07-22T12:35:18;12.40;;;8.97;;
11642;SDS011;5877;50.930;6.918;2022-07-22T12:37:46;10.87;;;8.50;;
11642;SDS011;5877;50.930;6.918;2022-07-22T12:40:20;9.90;;;8.90;;
11642;SDS011;5877;50.930;6.918;2022-07-22T12:45:29;10.30;;;8.83;;
11642;SDS011;5877;50.930;6.918;2022-07-22T12:50:36;11.47;;;9.73;;
11642;SDS011;5877;50.930;6.918;2022-07-22T12:53:04;13.17;;;9.23;;
11642;SDS011;5877;50.930;6.918;2022-07-22T12:55:46;10.10;;;8.63;;
11642;SDS011;5877;50.930;6.918;2022-07-22T12:58:29;11.37;;;9.17;;
11642;SDS011;5877;50.930;6.918;2022-07-22T13:01:04;10.13;;;9.07;;
11642;SDS011;5877;50.930;6.918;2022-07-22T13:03:52;9.53;;;8.37;;
11642;SDS011;5877;50.930;6.918;2022-07-22T13:06:19;11.60;;;10.00;;
11642;SDS011;5877;50.930;6.918;2022-07-22T13:08:46;9.93;;;8.93;;
11642;SDS011;5877;50.930;6.918;2022-07-22T13:11:13;14.63;;;9.17;;
11642;SDS011;5877;50.930;6.918;2022-07-22T13:13:43;21.77;;;13.23;;
11642;SDS011;5877;50.930;6.918;2022-07-22T13:16:12;13.50;;;9.93;;
11642;SDS011;5877;50.930;6.918;2022-07-22T13:18:42;11.00;;;9.73;;
11642;SDS011;5877;50.930;6.918;2022-07-22T13:21:11;10.83;;;8.47;;
11642;SDS011;5877;50.930;6.918;2022-07-22T13:23:38;10.03;;;8.97;;
11642;SDS011;5877;50.930;6.918;2022-07-22T13:26:05;12.20;;;8.67;;
11642;SDS011;5877;50.930;6.918;2022-07-22T13:28:35;12.83;;;9.00;;
11642;SDS011;5877;50.930;6.918;2022-07-22T13:31:03;14.17;;;9.53;;
11642;SDS011;5877;50.930;6.918;2022-07-22T13:33:30;10.17;;;8.80;;
11642;SDS011;5877;50.930;6.918;2022-07-22T13:35:58;10.43;;;8.93;;
11642;SDS011;5877;50.930;6.918;2022-07-22T13:38:25;17.37;;;10.33;;
11642;SDS011;5877;50.930;6.918;2022-07-22T13:40:53;12.37;;;9.93;;
11642;SDS011;5877;50.930;6.918;2022-07-22T13:43:22;10.80;;;9.63;;
11642;SDS011;5877;50.930;6.918;2022-07-22T13:45:51;10.30;;;9.30;;
11642;SDS011;5877;50.930;6.918;2022-07-22T13:48:19;10.80;;;9.70;;
11642;SDS011;5877;50.930;6.918;2022-07-22T13:50:47;11.33;;;9.87;;
11642;SDS011;5877;50.930;6.918;2022-07-22T13:53:14;14.63;;;11.13;;
11642;SDS011;5877;50.930;6.918;2022-07-22T13:55:42;12.10;;;10.37;;
11642;SDS011;5877;50.930;6.918;2022-07-22T13:58:09;12.27;;;10.00;;
11642;SDS011;5877;50.930;6.918;2022-07-22T14:00:39;10.47;;;9.53;;
11642;SDS011;5877;50.930;6.918;2022-07-22T14:03:07;15.20;;;10.97;;
11642;SDS011;5877;50.930;6.918;2022-07-22T14:05:36;11.33;;;9.87;;
11642;SDS011;5877;50.930;6.918;2022-07-22T14:08:03;12.00;;;10.07;;
11642;SDS011;5877;50.930;6.918;2022-07-22T14:10:30;11.80;;;10.07;;
11642;SDS011;5877;50.930;6.918;2022-07-22T14:12:57;13.13;;;10.33;;
11642;SDS011;5877;50.930;6.918;2022-07-22T14:15:24;12.67;;;11.37;;
11642;SDS011;5877;50.930;6.918;2022-07-22T14:17:51;12.80;;;10.70;;
11642;SDS011;5877;50.930;6.918;2022-07-22T14:20:19;13.80;;;10.90;;
11642;SDS011;5877;50.930;6.918;2022-07-22T14:22:46;12.97;;;10.40;;
11642;SDS011;5877;50.930;6.918;2022-07-22T14:25:13;12.73;;;9.90;;
11642;SDS011;5877;50.930;6.918;2022-07-22T14:27:41;12.77;;;9.97;;
11642;SDS011;5877;50.930;6.918;2022-07-22T14:30:08;12.60;;;10.60;;
11642;SDS011;5877;50.930;6.918;2022-07-22T14:32:35;11.23;;;9.93;;
11642;SDS011;5877;50.930;6.918;2022-07-22T14:35:03;11.30;;;10.20;;
11642;SDS011;5877;50.930;6.918;2022-07-22T14:37:33;11.47;;;10.27;;
11642;SDS011;5877;50.930;6.918;2022-07-22T14:40:00;11.53;;;9.77;;
11642;SDS011;5877;50.930;6.918;2022-07-22T14:42:27;9.73;;;8.73;;
11642;SDS011;5877;50.930;6.918;2022-07-22T14:44:54;10.50;;;9.43;;
11642;SDS011;5877;50.930;6.918;2022-07-22T14:47:21;13.20;;;10.27;;
11642;SDS011;5877;50.930;6.918;2022-07-22T14:49:49;10.83;;;9.70;;
11642;SDS011;5877;50.930;6.918;2022-07-22T14:52:16;14.57;;;10.60;;
11642;SDS011;5877;50.930;6.918;2022-07-22T14:54:43;10.20;;;8.53;;
11642;SDS011;5877;50.930;6.918;2022-07-22T14:57:11;11.13;;;9.87;;
11642;SDS011;5877;50.930;6.918;2022-07-22T14:59:39;10.47;;;9.37;;
11642;SDS011;5877;50.930;6.918;2022-07-22T15:02:06;10.63;;;9.53;;
11642;SDS011;5877;50.930;6.918;2022-07-22T15:04:33;11.40;;;9.13;;
11642;SDS011;5877;50.930;6.918;2022-07-22T15:07:01;10.83;;;9.27;;
11642;SDS011;5877;50.930;6.918;2022-07-22T15:09:28;9.87;;;8.87;;
11642;SDS011;5877;50.930;6.918;2022-07-22T15:11:56;11.40;;;10.20;;
11642;SDS011;5877;50.930;6.918;2022-07-22T15:14:23;11.10;;;9.90;;
11642;SDS011;5877;50.930;6.918;2022-07-22T15:16:50;11.17;;;9.37;;
11642;SDS011;5877;50.930;6.918;2022-07-22T15:19:17;10.87;;;9.30;;
11642;SDS011;5877;50.930;6.918;2022-07-22T15:21:52;10.53;;;9.43;;
11642;SDS011;5877;50.930;6.918;2022-07-22T15:24:20;11.53;;;10.33;;
11642;SDS011;5877;50.930;6.918;2022-07-22T15:26:48;10.97;;;9.63;;
11642;SDS011;5877;50.930;6.918;2022-07-22T15:29:15;12.07;;;9.97;;
11642;SDS011;5877;50.930;6.918;2022-07-22T15:31:42;12.23;;;10.70;;
11642;SDS011;5877;50.930;6.918;2022-07-22T15:34:09;11.47;;;10.07;;
11642;SDS011;5877;50.930;6.918;2022-07-22T15:36:36;11.47;;;10.37;;
11642;SDS011;5877;50.930;6.918;2022-07-22T15:39:03;12.00;;;10.43;;
11642;SDS011;5877;50.930;6.918;2022-07-22T15:41:31;12.23;;;10.93;;
11642;SDS011;5877;50.930;6.918;2022-07-22T15:43:59;12.73;;;11.07;;
11642;SDS011;5877;50.930;6.918;2022-07-22T15:47:27;14.23;;;11.80;;